Forside
METAR-TAF:

METAR-TAF

Lufthavne :

Claremore, Oklahoma, USA

Breddekreds: 36-17-40N, længdekreds: 095-28-47W, højde: 221 m

Aktuelle vejr

Denne rapport blev lavet for 6 minutter siden, kl. 22:55 UTC
Vind 3 kt fra syd
Temperatur 15°C
Fugtighed 41%
Tryk 1017 hPa
Sigt: 16.1 km
skyfri

METAR: KGCM 162255Z AUTO 17003KT 10SM CLR 15/02 A3002 RMK AO2 TSNO

Tid: 17:01 (23:01 UTC)


TAF: fraværende

Vejrobservationer og prognoser fra mere end 4000 lufthavne (METAR og TAF).

De gule og røde prikker repræsenterer de meteorologiske stationer.

Flyt musen over at se navnet på stationen.

Så klik over at se vejr observationer og prognoser.

At skifte det kort: Klik på de grønne knapper med et sort kors for at zoome ind; på den grønne knap med en bindestreg for at zoome ud; eller på de grønne pile for tilstødende kort.


METAR-TAF: